createdAt,value
2023-03-31T00:04:24.415Z,9.30
2023-03-31T00:08:52.353Z,9.30
2023-03-31T00:13:14.978Z,9.20
2023-03-31T00:17:37.100Z,9.00
2023-03-31T00:22:02.704Z,8.90
2023-03-31T00:26:26.430Z,8.80
2023-03-31T00:30:49.741Z,8.90
2023-03-31T00:35:12.747Z,9.00
2023-03-31T00:39:35.538Z,9.00
2023-03-31T00:44:19.220Z,8.80
2023-03-31T00:48:57.919Z,8.70
2023-03-31T00:53:29.885Z,8.60
2023-03-31T00:57:53.992Z,8.40
2023-03-31T01:02:18.103Z,8.30
2023-03-31T01:06:53.066Z,8.20
2023-03-31T01:11:18.932Z,8.10
2023-03-31T01:15:42.355Z,8.20
2023-03-31T01:20:36.349Z,8.30
2023-03-31T01:25:44.717Z,8.40
2023-03-31T01:30:51.765Z,8.40
2023-03-31T01:35:36.177Z,8.40
2023-03-31T01:40:14.876Z,8.40
2023-03-31T01:45:01.483Z,8.60
2023-03-31T01:49:42.797Z,8.60
2023-03-31T01:54:24.087Z,8.70
2023-03-31T01:59:21.864Z,8.60
2023-03-31T02:03:55.712Z,8.70
2023-03-31T02:08:35.377Z,8.70
2023-03-31T02:13:00.056Z,8.70
2023-03-31T02:17:33.147Z,8.70
2023-03-31T02:21:55.796Z,8.90
2023-03-31T02:26:27.577Z,8.90
2023-03-31T02:31:39.335Z,8.80
2023-03-31T02:36:03.282Z,8.90
2023-03-31T02:40:27.867Z,8.80
2023-03-31T02:44:50.443Z,9.00
2023-03-31T02:49:15.139Z,9.10
2023-03-31T02:53:58.244Z,9.10
2023-03-31T02:58:54.865Z,9.10
2023-03-31T03:03:36.131Z,9.20
2023-03-31T03:08:20.406Z,9.20
2023-03-31T03:13:17.363Z,9.30
2023-03-31T03:17:48.666Z,9.20
2023-03-31T03:22:10.865Z,9.30
2023-03-31T03:26:35.319Z,9.30
2023-03-31T03:30:58.413Z,9.30
2023-03-31T03:35:20.826Z,9.40
2023-03-31T03:39:42.642Z,9.50
2023-03-31T03:44:05.942Z,9.60
2023-03-31T03:48:27.926Z,9.50
2023-03-31T03:52:49.785Z,9.40
2023-03-31T03:57:11.704Z,9.40
2023-03-31T04:01:33.659Z,9.40
2023-03-31T04:05:56.000Z,9.50
2023-03-31T04:10:18.296Z,9.60
2023-03-31T04:14:40.295Z,9.60
2023-03-31T04:19:05.105Z,9.60
2023-03-31T04:23:27.094Z,9.60
2023-03-31T04:27:55.073Z,9.60
2023-03-31T04:32:21.876Z,9.50
2023-03-31T04:36:47.924Z,9.60
2023-03-31T04:41:10.018Z,9.60
2023-03-31T04:45:32.202Z,9.60
2023-03-31T04:49:54.420Z,9.50
2023-03-31T04:54:16.869Z,9.30
2023-03-31T04:58:39.035Z,9.20
2023-03-31T05:03:02.004Z,9.20
2023-03-31T05:07:24.479Z,9.20
2023-03-31T05:11:46.727Z,9.20
2023-03-31T05:16:12.537Z,9.20
2023-03-31T05:20:34.870Z,9.30
2023-03-31T05:24:56.801Z,9.30
2023-03-31T05:29:19.749Z,9.40
2023-03-31T05:33:42.408Z,9.50
2023-03-31T05:38:05.124Z,9.50
2023-03-31T05:42:26.952Z,9.60
2023-03-31T05:46:48.893Z,9.80
2023-03-31T05:51:10.840Z,10.10
2023-03-31T05:55:33.921Z,10.70
2023-03-31T05:59:55.982Z,11.40
2023-03-31T06:04:18.105Z,11.80
2023-03-31T06:08:40.904Z,12.20
2023-03-31T06:13:03.221Z,12.60
2023-03-31T06:17:25.827Z,12.60
2023-03-31T06:21:47.924Z,13.80
2023-03-31T06:26:14.243Z,14.30
2023-03-31T06:30:36.451Z,14.10
2023-03-31T06:34:58.399Z,13.60
2023-03-31T06:39:20.535Z,12.70
2023-03-31T06:43:43.341Z,12.20
2023-03-31T06:48:06.969Z,12.10
2023-03-31T06:52:29.466Z,12.50
2023-03-31T06:56:51.697Z,13.50
2023-03-31T07:01:13.747Z,15.10
2023-03-31T07:05:36.335Z,16.60
2023-03-31T07:09:58.820Z,16.20
2023-03-31T07:14:21.177Z,15.70
2023-03-31T07:18:43.656Z,15.10
2023-03-31T07:23:06.836Z,15.30
2023-03-31T07:27:28.802Z,15.40
2023-03-31T07:31:51.640Z,15.50
2023-03-31T07:36:16.664Z,15.20
2023-03-31T07:40:40.751Z,16.40
2023-03-31T07:45:06.417Z,15.40
2023-03-31T07:49:28.499Z,14.40
2023-03-31T07:53:52.629Z,14.00
2023-03-31T07:58:14.957Z,13.50
2023-03-31T08:02:37.323Z,13.10
2023-03-31T08:06:59.326Z,12.60
2023-03-31T08:11:22.147Z,12.30
2023-03-31T08:15:44.504Z,12.00
2023-03-31T08:20:08.316Z,11.80
2023-03-31T08:24:30.878Z,11.80
2023-03-31T08:28:54.051Z,11.80
2023-03-31T08:33:16.461Z,11.90
2023-03-31T08:37:40.094Z,11.90
2023-03-31T08:42:40.814Z,11.90
2023-03-31T08:47:05.718Z,11.80
2023-03-31T08:51:29.646Z,11.90
2023-03-31T08:55:54.474Z,11.90
2023-03-31T09:00:20.534Z,11.90
2023-03-31T09:04:53.437Z,11.90
2023-03-31T09:10:17.718Z,11.80
2023-03-31T09:14:53.949Z,12.10
2023-03-31T09:19:38.656Z,12.30
2023-03-31T09:24:12.805Z,12.10
2023-03-31T09:28:40.538Z,12.00
2023-03-31T09:33:32.228Z,11.60
2023-03-31T09:37:54.804Z,11.40
2023-03-31T09:42:19.454Z,11.60
2023-03-31T09:46:43.026Z,11.80
2023-03-31T09:51:18.865Z,11.70
2023-03-31T09:55:54.104Z,11.50
2023-03-31T10:00:22.963Z,11.50
2023-03-31T10:04:47.043Z,11.60
2023-03-31T10:09:11.903Z,11.50
2023-03-31T10:13:53.383Z,11.40
2023-03-31T10:18:19.284Z,11.20
2023-03-31T10:22:45.861Z,11.30
2023-03-31T10:27:28.526Z,11.40
2023-03-31T10:31:50.478Z,11.40
2023-03-31T10:36:27.535Z,11.30
2023-03-31T10:40:57.023Z,11.10
2023-03-31T10:45:55.120Z,10.80
2023-03-31T10:50:17.792Z,10.70
2023-03-31T10:54:48.775Z,10.70
2023-03-31T10:59:26.351Z,10.40
2023-03-31T11:04:38.420Z,10.10
2023-03-31T11:09:37.377Z,10.00
2023-03-31T11:14:24.927Z,9.90
2023-03-31T11:18:52.889Z,9.90
2023-03-31T11:23:40.214Z,10.00
2023-03-31T11:28:21.241Z,10.00
2023-03-31T11:32:56.403Z,10.00
2023-03-31T11:37:57.415Z,10.00
2023-03-31T11:42:35.515Z,10.10
2023-03-31T11:47:01.557Z,10.10
2023-03-31T11:51:53.076Z,10.10
2023-03-31T11:56:16.889Z,10.00
2023-03-31T12:00:52.680Z,10.20
2023-03-31T12:05:16.954Z,10.50
2023-03-31T12:10:06.219Z,10.80
2023-03-31T12:14:36.894Z,10.80
2023-03-31T12:19:17.649Z,10.60
2023-03-31T12:23:45.059Z,10.60
2023-03-31T12:28:07.321Z,10.50
2023-03-31T12:32:36.632Z,10.70
2023-03-31T12:37:37.064Z,10.80
2023-03-31T12:42:27.240Z,11.10
2023-03-31T12:47:06.715Z,11.60
2023-03-31T12:52:06.941Z,12.40
2023-03-31T12:56:49.036Z,13.10
2023-03-31T13:01:16.865Z,13.60
2023-03-31T13:05:38.862Z,13.70
2023-03-31T13:10:20.049Z,13.80
2023-03-31T13:14:47.260Z,13.60
2023-03-31T13:19:35.985Z,13.60
2023-03-31T13:24:07.858Z,13.90
2023-03-31T13:28:44.074Z,13.90
2023-03-31T13:33:18.635Z,14.20
2023-03-31T13:37:58.496Z,14.40
2023-03-31T13:42:53.183Z,14.60
2023-03-31T13:47:49.773Z,14.90
2023-03-31T13:52:13.420Z,15.20
2023-03-31T13:57:14.469Z,15.20
2023-03-31T14:02:32.773Z,15.30
2023-03-31T14:07:38.046Z,15.00
2023-03-31T14:12:38.190Z,14.20
2023-03-31T14:17:02.917Z,14.30
2023-03-31T14:21:53.797Z,14.90
2023-03-31T14:26:52.858Z,15.50
2023-03-31T14:37:08.483Z,14.50
2023-03-31T14:41:31.352Z,14.00
2023-03-31T14:46:04.432Z,14.20
2023-03-31T14:50:36.597Z,14.10
2023-03-31T14:55:00.887Z,14.00
2023-03-31T14:59:34.007Z,14.00
2023-03-31T15:03:56.572Z,14.10
2023-03-31T15:08:23.008Z,14.20
2023-03-31T15:12:45.006Z,13.90
2023-03-31T15:17:06.937Z,13.70
2023-03-31T15:21:34.541Z,13.40
2023-03-31T15:26:09.945Z,13.40
2023-03-31T15:30:32.484Z,13.00
2023-03-31T15:34:57.329Z,12.60
2023-03-31T15:39:25.695Z,12.20
2023-03-31T15:43:53.330Z,12.30
2023-03-31T15:48:20.714Z,12.60
2023-03-31T15:52:54.140Z,12.40
2023-03-31T15:57:22.557Z,12.20
2023-03-31T16:01:46.769Z,12.30
2023-03-31T16:06:41.838Z,12.40
2023-03-31T16:11:10.055Z,12.20
2023-03-31T16:15:53.467Z,12.00
2023-03-31T16:20:40.456Z,11.90
2023-03-31T16:25:02.735Z,11.90
2023-03-31T16:29:24.715Z,11.90
2023-03-31T16:33:57.047Z,12.00
2023-03-31T16:38:21.114Z,12.10
2023-03-31T16:42:43.182Z,12.00
2023-03-31T16:47:05.218Z,12.00
2023-03-31T16:51:27.957Z,11.80
2023-03-31T16:55:50.770Z,11.60
2023-03-31T17:00:13.796Z,11.60
2023-03-31T17:04:36.040Z,11.40
2023-03-31T17:08:58.517Z,11.30
2023-03-31T17:13:21.865Z,11.30
2023-03-31T17:17:44.454Z,11.20
2023-03-31T17:22:06.979Z,11.10
2023-03-31T17:26:29.479Z,11.00
2023-03-31T17:30:51.801Z,10.90
2023-03-31T17:35:20.819Z,10.70
2023-03-31T17:39:43.788Z,10.50
2023-03-31T17:44:08.015Z,10.40
2023-03-31T17:48:29.906Z,10.30
2023-03-31T17:52:52.596Z,10.30
2023-03-31T17:57:14.982Z,10.30
2023-03-31T18:01:37.906Z,10.30
2023-03-31T18:06:08.658Z,10.30
2023-03-31T18:10:31.727Z,10.30
2023-03-31T18:14:56.912Z,10.30
2023-03-31T18:19:18.928Z,10.20
2023-03-31T18:23:41.611Z,10.20
2023-03-31T18:28:04.097Z,10.10
2023-03-31T18:32:26.194Z,10.10
2023-03-31T18:36:48.278Z,10.10
2023-03-31T18:41:10.932Z,10.10
2023-03-31T18:45:33.142Z,10.00
2023-03-31T18:49:55.890Z,10.00
2023-03-31T18:54:17.936Z,10.00
2023-03-31T18:58:40.093Z,9.90
2023-03-31T19:03:02.325Z,9.90
2023-03-31T19:07:24.382Z,9.80
2023-03-31T19:11:46.457Z,9.70
2023-03-31T19:16:10.151Z,9.40
2023-03-31T19:20:32.920Z,9.20
2023-03-31T19:24:55.377Z,9.10
2023-03-31T19:29:17.916Z,9.10
2023-03-31T19:34:07.816Z,9.10
2023-03-31T19:38:32.336Z,9.00
2023-03-31T19:42:54.340Z,9.00
2023-03-31T19:47:16.698Z,8.90
2023-03-31T19:51:38.591Z,8.90
2023-03-31T19:56:16.921Z,8.90
2023-03-31T20:00:39.225Z,8.90
2023-03-31T20:05:02.020Z,8.90
2023-03-31T20:09:25.538Z,8.80
2023-03-31T20:13:48.378Z,8.80
2023-03-31T20:18:10.344Z,8.80
2023-03-31T20:22:33.427Z,8.80
2023-03-31T20:26:55.771Z,8.80
2023-03-31T20:31:24.251Z,8.70
2023-03-31T20:35:47.288Z,8.70
2023-03-31T20:40:11.917Z,8.70
2023-03-31T20:44:34.181Z,8.60
2023-03-31T20:48:57.486Z,8.60
2023-03-31T20:53:19.357Z,8.60
2023-03-31T20:57:41.564Z,8.60
2023-03-31T21:02:03.866Z,8.60
2023-03-31T21:06:27.343Z,8.60
2023-03-31T21:10:49.265Z,8.60
2023-03-31T21:15:11.536Z,8.60
2023-03-31T21:19:33.719Z,8.70
2023-03-31T21:23:55.838Z,8.70
2023-03-31T21:28:20.760Z,8.70
2023-03-31T21:32:43.015Z,8.70
2023-03-31T21:37:05.142Z,8.60
2023-03-31T21:41:30.316Z,8.60
2023-03-31T21:45:57.418Z,8.50
2023-03-31T21:50:19.451Z,8.50
2023-03-31T21:54:41.502Z,8.50
2023-03-31T21:59:04.477Z,8.40
2023-03-31T22:03:29.133Z,8.30
2023-03-31T22:07:52.046Z,8.30
2023-03-31T22:12:13.999Z,8.20
2023-03-31T22:16:36.439Z,8.10
2023-03-31T22:21:01.298Z,8.10
2023-03-31T22:25:23.329Z,8.00
2023-03-31T22:29:45.618Z,8.00
2023-03-31T22:34:07.764Z,8.00
2023-03-31T22:38:29.935Z,8.00
2023-03-31T22:42:54.935Z,8.00
2023-03-31T22:47:16.924Z,8.00
2023-03-31T22:51:40.757Z,8.10
2023-03-31T22:56:10.796Z,8.10
2023-03-31T23:00:32.726Z,8.10
2023-03-31T23:04:54.794Z,8.10
2023-03-31T23:09:17.515Z,8.10
2023-03-31T23:13:39.935Z,8.10
2023-03-31T23:18:01.979Z,8.00
2023-03-31T23:22:25.956Z,8.10
2023-03-31T23:26:47.930Z,8.10
2023-03-31T23:31:10.927Z,8.10
2023-03-31T23:35:33.504Z,8.10
2023-03-31T23:39:55.843Z,8.00
2023-03-31T23:44:18.256Z,8.00
2023-03-31T23:48:40.832Z,8.00
2023-03-31T23:53:02.732Z,8.00
2023-03-31T23:57:24.599Z,8.00
